Regionale Übersicht

METAR und TAF

Dienstag, 20. August 2019 - 10:05 Uhr

Beobachtete horizontale meteorologische Sicht an ausgewählten Flughäfen. Die vollständigen METARs und Flugwettervorhersagen (TAFs) sind verfügbar, wenn Sie auf das entsprechende Symbol mit der ICAO-Flughafenkennung klicken.

  • Luxemburg (ELLX)

    Taf: TAF ELLX 200500Z 2006/2112 28007KT CAVOK PROB30 TEMPO 2006/2007 3500 BR SCT002 PROB40 TEMPO 2015/2018 7000 -SHRA SCT020 BKN030 BECMG 2021/2024 VRB02KT=

    Metar: METAR ELLX 200750Z 03005KT 350V060 CAVOK 15/09 Q1023 NOSIG=

  • Spangdahlem (ETAD)

    Taf: TAF ETAD 200400Z 2004/2110 VRB04KT 9999 FEW020 SCT070 QNH3016INS TEMPO 2004/2006 9000 BR BKN020 BECMG 2006/2007 27003KT 9999 SCT020 SCT040 BKN100 QNH3017INS BECMG 2009/2010 27010G18KT 9999 SCT030 BKN100 QNH3019INS BECMG 2019/2020 30005KT 9999 SCT015 BKN025 QNH3026INS BECMG 2108/2109 09008KT 9999 SCT025 QNH3029INS TX20/2016Z TN09/2004Z=

    Metar: nil

  • Metz/Nancy (LFJL)

    Taf: TAF LFJL 200500Z 2006/2106 35005KT CAVOK=

    Metar: nil

  • Saarbrücken/Intl (EDDR)

    Taf: TAF EDDR 200500Z 2006/2106 29004KT CAVOK=

    Metar: nil

  • Hahn (EDFH)

    Taf: TAF EDFH 200500Z 2006/2106 29006KT CAVOK=

    Metar: nil

  • Ramstein (ETAR)

    Taf: TAF ETAR 200200Z 2002/2108 VRB06KT 9999 FEW060 SCT200 QNH3015INS TX23/2012Z TN07/2003Z=

    Metar: nil

  • Nancy/Ochey (LFSO)

    Taf: TAF LFSO 200800Z 2009/2109 01005KT CAVOK PROB30 TEMPO 2018/2021 -SHRA PROB30 2103/2106 4500 BR=

    Metar: nil

  • Liège Bierset (EBLG)

    Taf: TAF EBLG 200510Z 2006/2112 25007KT 9999 FEW020=

    Metar: nil

  • Saint-Dizier (LFSI)

    Taf: TAF LFSI 200200Z 2003/2103 VRB03KT CAVOK=

    Metar: nil

  • Maastricht/Zuid Limburg (EHBK)

    Taf: TAF EHBK 200452Z 2006/2112 22008KT CAVOK PROB30 TEMPO 2014/2020 7000 -SHRA SCT030TCU BECMG 2018/2021 VRB03KT=

    Metar: nil

  • Köln/Köln-Bonn (EDDK)

    Taf: TAF EDDK 200500Z 2006/2112 18004KT CAVOK BECMG 2008/2010 27007KT BECMG 2018/2020 VRB02KT TEMPO 2103/2110 13005KT=

    Metar: METAR EDDK 200750Z 18004KT 150V210 9999 FEW024 16/10 Q1023 NOSIG=

  • Charleroi (EBCI)

    Taf: TAF EBCI 200510Z 2006/2112 25007KT 9999 FEW020=

    Metar: nil

  • Wiesbaden (ETOU)

    Taf: TAF ETOU 200300Z 2003/2109 34006KT 9999 SCT080 BKN200 QNH3004INS TX24/2013Z TN12/2005Z=

    Metar: nil

  • Karlsruhe/Baden-Baden (EDSB)

    Taf: TAF EDSB 200500Z 2006/2106 02004KT CAVOK TEMPO 2017/2103 18005KT=

    Metar: nil

  • Chalons/Vatry (LFOK)

    Taf: TAF LFOK 200500Z 2006/2106 VRB02KT CAVOK BECMG 2006/2009 36007KT TEMPO 2013/2017 SHRA SCT040TCU=

    Metar: nil

  • Brüssel (EBBR)

    Taf: TAF EBBR 200510Z 2006/2112 24008KT 9999 FEW020=

    Metar: METAR EBBR 200750Z 24007KT 200V260 9999 FEW018 16/12 Q1023 NOSIG=

  • Düsseldorf (EDDL)

    Taf: TAF EDDL 200500Z 2006/2112 19008KT CAVOK BECMG 2009/2012 26010KT BECMG 2017/2020 VRB03KT=

    Metar: nil

  • Luxeuil (LFSX)

    Taf: TAF LFSX 200200Z NIL=

    Metar: nil

  • Eindhoven (EHEH)

    Taf: TAF EHEH 200517Z 2006/2112 22008KT CAVOK PROB30 TEMPO 2011/2017 28012G22KT SCT030CB BECMG 2017/2020 27003KT BECMG 2023/2101 21003KT PROB30 2101/2105 4000 BR MIFG=

    Metar: nil

  • Niederrhein (EDLV)

    Taf: TAF EDLV 200500Z 2006/2106 20005KT CAVOK BECMG 2008/2011 26008KT BECMG 2017/2019 VRB02KT PROB40 TEMPO 2103/2106 4000 BR=

    Metar: nil

  • Dortmund/Wickede (EDLW)

    Taf: TAF EDLW 200500Z 2006/2106 20007KT CAVOK BECMG 2007/2010 26007KT BECMG 2020/2022 20004KT=

    Metar: nil

  • Stuttgart/Echterdingen (EDDS)

    Taf: TAF EDDS 200500Z 2006/2106 29002KT CAVOK BECMG 2008/2011 33007KT PROB30 TEMPO 2015/2019 RA BECMG 2018/2021 VRB03KT=

    Metar: METAR EDDS 200750Z 35003KT 310V040 9999 BKN045 17/10 Q1022 NOSIG=

  • Basel-Mühlhausen (LFSB)

    Taf: TAF LFSB 200500Z 2006/2106 32005KT 9999 BKN035 BKN053 BECMG 2006/2008 -RA PROB30 TEMPO 2006/2008 BKN006 PROB40 TEMPO 2010/2018 3500 RA BKN014 FEW030TCU BECMG 2018/2021 VRB03KT NSW SCT050 BECMG 2022/2024 2000 BR TEMPO 2100/2106 1200 BCFG BKN001 PROB40 TEMPO 2102/2106 0200 FG VV///=

    Metar: METAR LFSB 200730Z 32003KT 280V360 9999 FEW008 BKN050 16/15 Q1022 NOSIG=

  • Lille (LFQQ)

    Taf: TAF LFQQ 200500Z 2006/2112 VRB02KT 9999 SCT030 BECMG 2006/2009 26010KT BECMG 2020/2022 20003KT BECMG 2101/2103 3000 BR TEMPO 2103/2106 0800 FG BECMG 2106/2108 CAVOK=

    Metar: nil

  • Paris/Charles de Gaulle (LFPG)

    Taf: TAF LFPG 200500Z 2006/2112 36003KT CAVOK TX22/2015Z TN12/2105Z PROB40 TEMPO 2017/2019 30010G20KT=

    Metar: nil

  • Paderborn/Lippstadt (EDLP)

    Taf: TAF EDLP 200500Z 2006/2106 21005KT CAVOK BECMG 2007/2009 27007KT BECMG 2017/2019 21004KT=

    Metar: nil

  • Paris/Le Bourget (LFPB)

    Taf: TAF LFPB 200500Z 2006/2106 36003KT CAVOK PROB40 TEMPO 2017/2019 30010G20KT=

    Metar: METAR LFPB 200730Z AUTO 34003KT 290V360 CAVOK 16/11 Q1023 NOSIG=

  • Rotterdam (EHRD)

    Taf: TAF EHRD 200519Z 2006/2112 21007KT 9999 FEW030 BECMG 2007/2010 25014KT PROB30 TEMPO 2010/2015 6000 SHRA SCT030CB BECMG 2017/2020 21006KT PROB30 TEMPO 2101/2106 4000 MIFG BR=

    Metar: nil

  • Zürich/Kloten (LSZH)

    Taf: TAF LSZH 200525Z 2006/2112 VRB03KT 8000 -RA FEW004 SCT010 BKN030 TX18/2014Z TN16/2006Z TN11/2104Z TEMPO 2006/2021 4000 RA SCT009 BKN012 PROB40 TEMPO 2008/2016 2500 +RA BKN008 BECMG 2020/2023 NSW PROB40 2103/2107 4000 BCFG BKN005 BECMG 2105/2107 04008KT=

    Metar: METAR LSZH 200750Z 31006KT 7000 RA FEW004 SCT037 BKN085 16/15 Q1022 TEMPO 4000 RA=

  • Oostende/Intl (EBOS)

    Taf: TAF EBOS 200510Z 2006/2112 24010KT 9999 FEW018=

    Metar: nil

  • Paris/Orly (LFPO)

    Taf: TAF LFPO 200500Z 2006/2112 30006KT 9999 SCT035 BECMG 2010/2012 CAVOK=

    Metar: nil

  • Beauvais (LFOB)

    Taf: TAF LFOB 200500Z 2006/2106 VRB02KT CAVOK BECMG 2008/2010 29010KT BECMG 2019/2021 VRB02KT BECMG 2101/2103 3000 BR TEMPO 2103/2106 0800 FG=

    Metar: nil

  • Münster/Intl (EDDG)

    Taf: TAF EDDG 200500Z 2006/2106 19005KT CAVOK BECMG 2007/2009 25009KT BECMG 2018/2020 VRB03KT BECMG 2100/2103 3000 BR TEMPO 2101/2106 1200 BCFG PROB30 TEMPO 2104/2106 0400 FG=

    Metar: METAR EDDG 200750Z 19007KT 150V220 9999 FEW020 16/12 Q1021 NOSIG=

  • Illesheim (ETIK)

    Taf: TAF ETIK 200600Z 2006/2112 35006KT 9999 OVC060 QNH3015INS BECMG 2012/2013 32006KT 9000 -SHRA SCT030 OVC050 QNH3017INS BECMG 2022/2023 26006KT 9999 NSW SCT060 QNH3029INS BECMG 2106/2107 VRB06KT 9999 FEW060 QNH3032INS TX22/2012Z TN11/2103Z=

    Metar: nil

  • Duebendorf (LSMD)

    Taf: TAF LSMD 200500Z NIL=

    Metar: nil

  • Villacoublay (LFPV)

    Taf: TAF LFPV 200200Z 2003/2103 VRB02KT CAVOK=

    Metar: nil

  • Payerne (LSMP)

    Taf: TAF LSMP 200525Z 2006/2112 VRB03KT 9999 -RA SCT030 BKN060 TEMPO 2006/2018 RA BECMG 2106/2108 05010KT CAVOK=

    Metar: nil

  • Amsterdam/Schipol (EHAM)

    Taf: TAF EHAM 200519Z 2006/2112 21007KT 9999 FEW030 BECMG 2007/2010 25014KT PROB30 TEMPO 2010/2015 6000 SHRA SCT030CB BECMG 2017/2020 20006KT=

    Metar: METAR EHAM 200755Z 21011KT 180V240 9999 FEW023 18/14 Q1020 NOSIG=

  • Emmen (LSME)

    Taf: TAF LSME 200500Z NIL=

    Metar: nil

  • Friedrichshafen (EDNY)

    Taf: TAF EDNY 200500Z 2006/2106 VRB02KT 9999 FEW008 BKN030 TEMPO 2006/2024 4000 RA SCT008 BKN012 TEMPO 2010/2017 36005KT PROB30 TEMPO 2014/2021 2500 +RA BKN008 BECMG 2100/2102 03006KT=

    Metar: nil

  • Alpnach (LSMA)

    Taf: TAF LSMA 200500Z NIL=

    Metar: nil

  • Meiringen (LSMM)

    Taf: TAF LSMM 200500Z NIL=

    Metar: nil

  • Nürnberg (EDDN)

    Taf: TAF EDDN 200500Z 2006/2106 VRB02KT 9999 SCT045 BECMG 2008/2010 33005KT PROB30 TEMPO 2016/2019 RA BECMG 2017/2019 VRB02KT=

    Metar: METAR EDDN 200750Z 33005KT 310V020 CAVOK 17/13 Q1021 NOSIG=

  • Rouen (LFOP)

    Taf: TAF AMD LFOP 200500Z 2006/2106 CNL=

    Metar: nil

  • Evreux (LFOE)

    Taf: TAF LFOE 200335Z 2003/2103 26004KT CAVOK TEMPO 2015/2017 33012G22KT BECMG 2022/2024 VRB01KT=

    Metar: nil

  • Erfurt/Bindersleben (EDDE)

    Taf: TAF EDDE 200500Z 2006/2106 24006KT CAVOK BECMG 2006/2008 30006KT BECMG 2018/2020 24006KT=

    Metar: nil